Time;durP1;ratioP1;P1;durP2;ratioP2;P2;SDS_P1;SDS_P2;PMS_P1;PMS_P2;Temp;Humidity;BMP_temperature;BMP_pressure;BME280_temperature;BME280_humidity;BME280_pressure;Samples;Min_cycle;Max_cycle;Signal;HPM_P1;HPM_P2
2022/09/10 00:01:13;;;;;;;16.52;12.75;;;15.70;99.90;;;;;;4972944;28;20053;-64
2022/09/10 00:03:39;;;;;;;19.85;15.57;;;15.70;99.90;;;;;;4994815;28;20501;-55
2022/09/10 00:06:06;;;;;;;20.55;15.13;;;15.70;99.90;;;;;;4991645;28;20050;-55
2022/09/10 00:08:33;;;;;;;18.23;15.57;;;15.70;99.90;;;;;;4991715;28;20177;-55
2022/09/10 00:11:04;;;;;;;18.95;14.88;;;15.70;99.90;;;;;;5013502;28;20150;-54
2022/09/10 00:13:30;;;;;;;20.67;15.43;;;15.70;99.90;;;;;;5007857;28;20038;-54
2022/09/10 00:15:55;;;;;;;18.13;15.95;;;15.70;99.90;;;;;;4963042;28;20042;-53
2022/09/10 00:18:22;;;;;;;17.23;15.38;;;15.80;99.90;;;;;;4994505;28;20040;-54
2022/09/10 00:20:49;;;;;;;21.75;17.65;;;15.70;99.90;;;;;;4996392;28;20037;-61
2022/09/10 00:23:17;;;;;;;21.23;18.60;;;15.70;99.90;;;;;;4995342;28;20056;-55
2022/09/10 00:25:44;;;;;;;23.77;19.48;;;15.80;99.90;;;;;;4993466;28;20050;-54
2022/09/10 00:28:10;;;;;;;24.45;19.40;;;15.80;99.90;;;;;;5008941;28;20057;-56
2022/09/10 00:30:44;;;;;;;22.73;19.65;;;15.80;99.90;;;;;;4994210;28;20048;-58
2022/09/10 00:33:10;;;;;;;;;;;15.80;99.90;;;;;;5005954;28;20038;-56
2022/09/10 00:35:36;;;;;;;21.88;18.50;;;15.80;99.90;;;;;;4996431;28;19925;-59
2022/09/10 00:38:03;;;;;;;24.30;19.05;;;15.80;99.90;;;;;;4991844;28;20046;-57
2022/09/10 00:40:30;;;;;;;25.77;21.42;;;15.80;99.90;;;;;;4978048;28;20046;-56
2022/09/10 00:42:56;;;;;;;26.00;20.63;;;15.80;99.90;;;;;;4979266;28;20882;-58
2022/09/10 00:45:29;;;;;;;24.80;21.88;;;15.90;99.90;;;;;;4994089;28;20030;-58
2022/09/10 00:48:03;;;;;;;23.60;20.23;;;15.90;99.90;;;;;;4975908;28;20400;-61
2022/09/10 00:50:37;;;;;;;23.33;19.42;;;15.90;99.90;;;;;;4997120;28;20118;-54
2022/09/10 00:53:07;;;;;;;27.33;20.63;;;15.90;99.90;;;;;;4992606;28;20493;-59
2022/09/10 00:55:35;;;;;;;30.80;22.55;;;15.90;99.90;;;;;;4993159;28;20073;-59
2022/09/10 00:58:04;;;;;;;33.72;24.58;;;15.90;99.90;;;;;;4993029;28;20050;-54
2022/09/10 01:00:30;;;;;;;32.15;24.65;;;15.90;99.90;;;;;;4989959;28;20041;-56
2022/09/10 01:02:58;;;;;;;26.98;22.55;;;15.90;99.90;;;;;;4988843;28;20050;-53
2022/09/10 01:05:25;;;;;;;27.08;22.65;;;15.90;99.90;;;;;;4993354;28;20084;-54
2022/09/10 01:07:56;;;;;;;29.45;21.42;;;15.90;99.90;;;;;;4988447;28;20050;-57
2022/09/10 01:10:31;;;;;;;26.60;23.20;;;16.00;99.90;;;;;;4992494;28;20141;-54
2022/09/10 01:13:29;;;;;;;30.13;21.75;;;15.90;99.90;;;;;;5011811;28;20042;-56
2022/09/10 01:16:10;;;;;;;30.05;24.67;;;16.00;99.90;;;;;;4969066;28;20082;-59
2022/09/10 01:18:35;;;;;;;31.20;24.60;;;16.00;99.90;;;;;;5001439;28;20042;-53
2022/09/10 01:21:09;;;;;;;29.00;22.88;;;16.00;99.90;;;;;;4993792;28;20036;-52
2022/09/10 01:24:11;;;;;;;32.80;25.73;;;16.00;99.90;;;;;;4989471;28;20561;-54
2022/09/10 01:27:02;;;;;;;34.10;25.08;;;16.00;99.90;;;;;;5022698;28;20048;-54
2022/09/10 01:29:43;;;;;;;33.78;23.63;;;16.00;99.90;;;;;;5005401;28;20082;-57
2022/09/10 01:32:14;;;;;;;26.83;22.75;;;16.00;99.90;;;;;;5009092;28;20061;-59
2022/09/10 01:34:55;;;;;;;32.33;25.13;;;16.00;99.90;;;;;;5000900;28;20120;-53
2022/09/10 01:37:28;;;;;;;31.90;24.05;;;16.00;99.90;;;;;;5008796;28;20401;-50
2022/09/10 01:39:55;;;;;;;26.90;21.48;;;16.00;99.90;;;;;;5009357;28;20115;-52
2022/09/10 01:42:31;;;;;;;30.38;23.50;;;15.90;99.90;;;;;;4994898;28;20046;-62
2022/09/10 01:44:57;;;;;;;34.15;25.67;;;16.00;99.90;;;;;;4975046;28;20115;-54
2022/09/10 01:48:00;;;;;;;26.95;23.10;;;15.90;99.90;;;;;;4997067;28;20046;-57
2022/09/10 01:51:14;;;;;;;29.58;22.20;;;15.90;99.90;;;;;;4997400;28;20092;-59
2022/09/10 01:53:48;;;;;;;26.15;22.67;;;16.00;99.90;;;;;;4959311;28;20109;-51
2022/09/10 01:56:41;;;;;;;30.50;24.50;;;16.00;99.90;;;;;;5004292;28;20046;-57
2022/09/10 01:59:19;;;;;;;35.75;25.88;;;16.00;99.90;;;;;;5016097;28;20092;-52
2022/09/10 02:01:51;;;;;;;34.53;25.25;;;16.00;99.90;;;;;;4999948;28;20045;-55
2022/09/10 02:04:18;;;;;;;28.27;24.95;;;16.00;99.90;;;;;;5016039;28;20072;-57
2022/09/10 02:06:46;;;;;;;33.30;26.40;;;16.00;99.90;;;;;;5000904;28;20040;-58
2022/09/10 02:09:15;;;;;;;30.52;25.52;;;16.00;99.90;;;;;;4985795;28;20042;-55
2022/09/10 02:11:52;;;;;;;35.28;26.77;;;15.90;99.90;;;;;;4988792;28;21283;-52
2022/09/10 02:14:20;;;;;;;31.92;25.40;;;16.00;99.90;;;;;;5011189;28;20120;-54
2022/09/10 02:16:57;;;;;;;33.90;26.17;;;15.90;99.90;;;;;;5016272;28;20037;-56
2022/09/10 02:19:25;;;;;;;35.92;27.40;;;15.90;99.90;;;;;;4998856;28;20128;-58
2022/09/10 02:21:55;;;;;;;31.70;24.88;;;15.90;99.90;;;;;;4997123;28;20153;-56
2022/09/10 02:24:21;;;;;;;34.60;27.58;;;15.90;99.90;;;;;;4999269;28;20624;-56
2022/09/10 02:26:48;;;;;;;32.60;27.58;;;15.90;99.90;;;;;;5016672;28;20034;-52
2022/09/10 02:29:18;;;;;;;35.55;27.20;;;15.90;99.90;;;;;;5001889;28;20045;-61
2022/09/10 02:31:44;;;;;;;35.28;26.35;;;15.90;99.90;;;;;;5002490;28;20053;-54
2022/09/10 02:34:10;;;;;;;36.10;27.40;;;15.90;99.90;;;;;;5015214;28;20456;-56
2022/09/10 02:36:36;;;;;;;34.72;27.05;;;15.90;99.90;;;;;;5001156;28;20049;-58
2022/09/10 02:39:03;;;;;;;44.10;30.00;;;15.90;99.90;;;;;;4996702;28;20548;-55
2022/09/10 02:41:33;;;;;;;31.55;25.27;;;16.00;99.90;;;;;;5001115;28;20045;-58
2022/09/10 02:44:00;;;;;;;41.88;30.42;;;15.90;99.90;;;;;;4996438;28;20042;-53
2022/09/10 02:46:27;;;;;;;36.83;26.55;;;15.90;99.90;;;;;;5001966;28;20547;-56
2022/09/10 02:48:54;;;;;;;32.95;25.25;;;15.80;99.90;;;;;;4997662;28;20038;-51
2022/09/10 02:51:20;;;;;;;31.20;26.15;;;15.80;99.90;;;;;;5001345;28;20042;-59
2022/09/10 02:53:46;;;;;;;40.03;29.17;;;15.80;99.90;;;;;;4980253;28;20046;-57
2022/09/10 02:56:12;;;;;;;34.10;26.70;;;15.80;99.90;;;;;;4966176;28;20088;-58
2022/09/10 02:58:38;;;;;;;36.30;28.75;;;15.80;99.90;;;;;;4997064;28;20045;-60
2022/09/10 03:01:10;;;;;;;37.40;26.67;;;15.70;99.90;;;;;;4982369;28;20054;-56
2022/09/10 03:03:36;;;;;;;38.50;28.92;;;15.70;99.90;;;;;;4998824;28;20068;-55
2022/09/10 03:06:02;;;;;;;35.95;26.05;;;15.70;99.90;;;;;;5003610;28;20386;-61
2022/09/10 03:08:29;;;;;;;36.47;28.40;;;15.70;99.90;;;;;;4998856;28;20164;-57
2022/09/10 03:10:56;;;;;;;37.58;27.50;;;15.70;99.90;;;;;;5010299;28;20092;-57
2022/09/10 03:13:22;;;;;;;40.47;29.85;;;15.70;99.90;;;;;;4999723;28;20121;-51
2022/09/10 03:15:48;;;;;;;33.40;25.70;;;15.70;99.90;;;;;;4999942;28;20519;-51
2022/09/10 03:18:14;;;;;;;38.17;27.60;;;15.60;99.90;;;;;;5003524;28;20577;-56
2022/09/10 03:20:40;;;;;;;34.05;27.52;;;15.60;99.90;;;;;;4976330;28;20121;-57
2022/09/10 03:23:06;;;;;;;35.33;28.50;;;15.60;99.90;;;;;;5004801;28;20111;-60
2022/09/10 03:25:32;;;;;;;32.03;27.45;;;15.60;99.90;;;;;;5004565;28;20041;-59
2022/09/10 03:27:58;;;;;;;37.08;27.83;;;15.60;99.90;;;;;;4992171;28;20060;-54
2022/09/10 03:30:24;;;;;;;41.45;30.67;;;15.60;99.90;;;;;;5005965;28;20493;-56
2022/09/10 03:32:50;;;;;;;41.47;30.33;;;15.60;99.90;;;;;;4999928;28;20042;-56
2022/09/10 03:35:16;;;;;;;35.92;28.20;;;15.60;99.90;;;;;;5001843;28;20048;-56
2022/09/10 03:37:43;;;;;;;36.55;27.52;;;15.60;99.90;;;;;;4990723;28;20049;-56
2022/09/10 03:40:09;;;;;;;36.00;28.40;;;15.50;99.90;;;;;;5005043;28;20053;-54
2022/09/10 03:42:35;;;;;;;33.85;27.10;;;15.50;99.90;;;;;;4999549;28;20100;-63
2022/09/10 03:45:01;;;;;;;41.13;32.03;;;15.50;99.90;;;;;;4998039;28;20042;-60
2022/09/10 03:47:27;;;;;;;36.75;29.13;;;15.50;99.90;;;;;;4994786;28;20044;-56
2022/09/10 03:49:53;;;;;;;44.63;33.53;;;15.50;99.90;;;;;;4996983;28;20045;-60
2022/09/10 03:52:21;;;;;;;42.33;31.95;;;15.50;99.90;;;;;;4981281;28;20046;-57
2022/09/10 03:54:49;;;;;;;39.35;29.95;;;15.50;99.90;;;;;;5011535;28;20042;-60
2022/09/10 03:57:15;;;;;;;38.88;30.73;;;15.50;99.90;;;;;;4999593;28;20582;-58
2022/09/10 03:59:41;;;;;;;42.85;31.25;;;15.40;99.90;;;;;;5013629;28;20038;-58
2022/09/10 04:02:08;;;;;;;49.47;33.55;;;15.40;99.90;;;;;;4980890;28;20041;-60
2022/09/10 04:04:36;;;;;;;36.50;28.85;;;15.40;99.90;;;;;;5002819;28;20053;-61
2022/09/10 04:07:05;;;;;;;50.00;34.40;;;15.40;99.90;;;;;;4996115;28;20125;-57
2022/09/10 04:09:31;;;;;;;39.25;30.60;;;15.50;99.90;;;;;;5000024;28;20041;-54
2022/09/10 04:11:58;;;;;;;42.20;31.40;;;15.50;99.90;;;;;;4994293;28;20600;-59
2022/09/10 04:14:23;;;;;;;43.33;33.17;;;15.50;99.90;;;;;;4994370;28;20049;-54
2022/09/10 04:16:54;;;;;;;46.17;33.95;;;15.50;99.90;;;;;;5048787;23;20445;-84
2022/09/10 04:19:22;;;;;;;39.88;31.10;;;15.50;99.90;;;;;;5019014;28;20502;-85
2022/09/10 04:21:51;;;;;;;46.90;28.73;;;15.50;99.90;;;;;;5000765;28;20041;-84
2022/09/10 04:24:20;;;;;;;39.47;30.60;;;15.50;99.90;;;;;;5042326;28;20052;-85
2022/09/10 04:26:46;;;;;;;38.50;29.83;;;15.50;99.90;;;;;;5017247;28;20088;-85
2022/09/10 04:29:12;;;;;;;49.17;37.15;;;15.50;99.90;;;;;;5012365;28;20327;-84
2022/09/10 04:31:38;;;;;;;35.80;28.23;;;15.50;99.90;;;;;;5018897;28;20474;-84
2022/09/10 04:34:04;;;;;;;33.15;26.92;;;15.50;99.90;;;;;;5031303;28;20128;-86
2022/09/10 04:36:30;;;;;;;40.72;30.95;;;15.50;99.90;;;;;;5012636;28;20041;-83
2022/09/10 04:38:58;;;;;;;42.75;32.58;;;15.50;99.90;;;;;;5014145;28;20036;-86
2022/09/10 04:41:27;;;;;;;45.42;33.13;;;15.50;99.90;;;;;;5019719;28;20067;-84
2022/09/10 04:44:00;;;;;;;42.67;31.60;;;15.20;99.90;;;;;;5015245;28;20500;-84
2022/09/10 04:46:29;;;;;;;44.05;31.50;;;15.50;99.90;;;;;;5029352;28;20041;-84
2022/09/10 04:48:54;;;;;;;42.08;31.85;;;15.50;99.90;;;;;;5023071;28;20041;-84
2022/09/10 04:51:23;;;;;;;48.33;33.85;;;15.50;99.90;;;;;;5013199;28;20056;-84
2022/09/10 04:53:55;;;;;;;51.65;36.40;;;15.50;99.90;;;;;;5010400;28;20069;-81
2022/09/10 04:56:20;;;;;;;42.10;31.17;;;15.40;99.90;;;;;;5022488;28;20110;-85
2022/09/10 04:58:47;;;;;;;58.35;36.58;;;15.40;99.90;;;;;;5009792;28;20037;-83
2022/09/10 05:01:13;;;;;;;54.70;35.92;;;15.40;99.90;;;;;;5028035;28;20437;-81
2022/09/10 05:03:38;;;;;;;42.33;32.25;;;15.40;99.90;;;;;;5012518;28;20500;-81
2022/09/10 05:06:04;;;;;;;51.17;35.92;;;15.40;99.90;;;;;;5013315;28;20106;-84
2022/09/10 05:08:33;;;;;;;57.42;37.80;;;15.40;99.90;;;;;;5025630;28;20132;-85
2022/09/10 05:11:02;;;;;;;55.50;36.17;;;15.40;99.90;;;;;;5011977;28;20041;-83
2022/09/10 05:13:29;;;;;;;49.60;35.28;;;15.40;99.90;;;;;;5013572;28;20318;-84
2022/09/10 05:15:58;;;;;;;45.50;32.30;;;15.40;99.90;;;;;;5023783;28;20072;-83
2022/09/10 05:18:28;;;;;;;46.72;32.42;;;15.40;99.90;;;;;;5012417;28;20477;-83
2022/09/10 05:20:57;;;;;;;49.35;33.25;;;15.40;99.90;;;;;;5015960;28;23935;-83
2022/09/10 05:23:23;;;;;;;39.55;30.30;;;15.40;99.90;;;;;;5000994;28;20049;-83
2022/09/10 05:25:49;;;;;;;52.75;35.83;;;15.50;99.90;;;;;;5015120;28;20520;-84
2022/09/10 05:28:19;;;;;;;40.00;30.92;;;15.50;99.90;;;;;;5027837;28;20151;-84
2022/09/10 05:30:46;;;;;;;42.00;30.15;;;15.50;99.90;;;;;;5017491;28;20048;-85
2022/09/10 05:33:14;;;;;;;46.13;32.88;;;15.50;99.90;;;;;;5040548;28;20068;-83
2022/09/10 05:35:40;;;;;;;40.00;29.35;;;15.50;99.90;;;;;;5021425;28;20092;-84
2022/09/10 05:38:07;;;;;;;36.88;27.52;;;15.50;99.90;;;;;;5019206;28;20091;-83
2022/09/10 05:40:34;;;;;;;42.50;31.85;;;15.50;99.90;;;;;;5023441;28;20051;-85
2022/09/10 05:43:02;;;;;;;44.00;30.80;;;15.60;99.90;;;;;;4994457;28;20461;-83
2022/09/10 05:45:28;;;;;;;35.95;27.48;;;15.60;99.90;;;;;;5014081;28;20037;-83
2022/09/10 05:47:54;;;;;;;41.13;29.88;;;15.60;99.90;;;;;;5050747;28;20044;-83
2022/09/10 05:50:20;;;;;;;30.58;25.80;;;15.70;99.90;;;;;;5030329;28;20132;-83
2022/09/10 05:52:46;;;;;;;38.72;29.85;;;15.70;99.90;;;;;;5006617;28;20060;-85
2022/09/10 05:55:13;;;;;;;43.58;30.27;;;15.70;99.90;;;;;;5032733;28;20532;-83
2022/09/10 05:57:41;;;;;;;34.05;26.42;;;15.70;99.90;;;;;;5017217;28;20124;-83
2022/09/10 06:00:08;;;;;;;33.50;26.58;;;15.80;99.90;;;;;;5001310;28;20136;-84
2022/09/10 06:02:35;;;;;;;34.30;27.48;;;15.80;99.90;;;;;;5053097;28;20037;-83
2022/09/10 06:05:00;;;;;;;36.10;27.63;;;15.80;99.90;;;;;;5017397;28;20037;-83
2022/09/10 06:07:28;;;;;;;34.60;24.80;;;15.40;99.90;;;;;;5004065;28;20047;-83
2022/09/10 06:09:54;;;;;;;32.95;25.50;;;15.80;99.90;;;;;;5022595;28;20044;-82
2022/09/10 06:12:20;;;;;;;38.42;28.45;;;15.80;99.90;;;;;;5030126;28;20052;-83
2022/09/10 06:14:46;;;;;;;32.78;25.88;;;15.90;99.90;;;;;;5008886;28;20692;-83
2022/09/10 06:17:12;;;;;;;37.70;27.30;;;15.90;99.90;;;;;;5006333;28;20073;-83
2022/09/10 06:19:38;;;;;;;34.75;25.98;;;15.90;99.90;;;;;;5023150;28;20044;-83
2022/09/10 06:22:05;;;;;;;37.58;27.42;;;15.90;99.90;;;;;;5021924;28;20072;-85
2022/09/10 06:24:30;;;;;;;36.85;27.73;;;15.90;99.90;;;;;;5025527;28;20045;-84
2022/09/10 06:26:56;;;;;;;39.65;29.42;;;16.00;99.90;;;;;;5022692;28;20465;-82
2022/09/10 06:29:25;;;;;;;42.10;30.20;;;16.00;99.90;;;;;;5018517;28;20179;-84
2022/09/10 06:31:54;;;;;;;29.75;23.58;;;16.00;99.90;;;;;;5006040;28;20033;-85
2022/09/10 06:34:20;;;;;;;29.13;22.85;;;16.00;99.90;;;;;;5006972;28;20048;-84
2022/09/10 06:36:49;;;;;;;36.95;27.38;;;16.10;99.90;;;;;;5022206;28;20119;-82
2022/09/10 06:39:17;;;;;;;27.92;22.73;;;16.10;99.90;;;;;;5035984;28;20068;-85
2022/09/10 06:41:43;;;;;;;29.58;23.70;;;16.10;99.90;;;;;;5023275;28;20029;-85
2022/09/10 06:44:09;;;;;;;37.20;28.42;;;16.10;99.90;;;;;;5024734;28;20105;-86
2022/09/10 06:46:36;;;;;;;37.63;26.45;;;16.20;99.90;;;;;;5035420;28;20095;-86
2022/09/10 06:49:03;;;;;;;33.78;24.63;;;16.10;99.90;;;;;;5039086;28;20040;-84
2022/09/10 06:51:29;;;;;;;35.53;26.17;;;16.20;99.90;;;;;;5038366;28;20040;-86
2022/09/10 06:54:43;;;;;;;32.80;25.90;;;16.20;99.90;;;;;;5027663;28;20045;-84
2022/09/10 06:57:10;;;;;;;30.52;23.08;;;16.20;99.90;;;;;;5026476;28;20052;-85
2022/09/10 06:59:59;;;;;;;34.65;26.02;;;16.20;99.90;;;;;;5023266;28;20052;-85
2022/09/10 07:03:23;;;;;;;38.85;26.20;;;16.30;99.90;;;;;;5026032;28;20097;-85
2022/09/10 07:06:02;;;;;;;;;;;;;;;;;;;;;
2022/09/10 07:08:43;;;;;;;29.52;24.33;;;16.30;99.90;;;;;;5022215;28;20041;-89
2022/09/10 07:11:13;;;;;;;31.10;25.05;;;16.40;99.90;;;;;;5036473;28;20013;-86
2022/09/10 07:14:03;;;;;;;29.15;20.88;;;16.50;99.90;;;;;;5017863;28;20036;-89
2022/09/10 07:16:28;;;;;;;29.40;22.77;;;16.20;99.90;;;;;;4965061;23;20035;-61
2022/09/10 07:18:57;;;;;;;33.65;25.17;;;16.50;99.90;;;;;;4981078;28;20038;-59
2022/09/10 07:21:26;;;;;;;30.77;23.55;;;16.60;99.90;;;;;;4965573;28;20065;-60
2022/09/10 07:23:57;;;;;;;28.27;22.60;;;16.60;99.90;;;;;;4964829;28;20052;-60
2022/09/10 07:26:23;;;;;;;33.03;24.75;;;16.70;99.90;;;;;;4962807;28;20070;-61
2022/09/10 07:28:49;;;;;;;28.90;21.60;;;16.70;99.90;;;;;;4952145;28;20131;-61
2022/09/10 07:31:21;;;;;;;26.20;20.30;;;16.80;99.90;;;;;;4976873;28;20313;-61
2022/09/10 07:33:47;;;;;;;24.48;20.00;;;16.80;99.90;;;;;;4981753;28;20057;-60
2022/09/10 07:36:14;;;;;;;29.85;22.75;;;16.80;99.90;;;;;;4985093;28;20412;-58
2022/09/10 07:38:41;;;;;;;29.92;23.52;;;16.80;99.90;;;;;;4950270;28;20049;-61
2022/09/10 07:41:10;;;;;;;28.60;22.88;;;16.80;99.90;;;;;;4967023;28;20117;-61
2022/09/10 07:43:37;;;;;;;24.98;21.60;;;16.90;99.90;;;;;;4991730;28;20046;-58
2022/09/10 07:46:07;;;;;;;26.25;21.95;;;17.00;99.90;;;;;;4972739;28;20074;-59
2022/09/10 07:48:33;;;;;;;26.63;21.98;;;17.00;99.90;;;;;;4945451;28;20065;-59
2022/09/10 07:51:03;;;;;;;31.33;22.90;;;16.90;99.90;;;;;;4974492;28;20052;-56
2022/09/10 07:53:29;;;;;;;27.38;21.60;;;16.90;99.90;;;;;;4960582;28;20054;-58
2022/09/10 07:56:04;;;;;;;30.35;21.83;;;16.90;99.90;;;;;;4965599;28;20039;-57
2022/09/10 07:58:31;;;;;;;31.85;22.77;;;17.00;99.90;;;;;;4962216;28;20529;-58
2022/09/10 08:00:58;;;;;;;30.80;22.52;;;17.00;99.90;;;;;;4973217;28;20046;-58
2022/09/10 08:03:28;;;;;;;26.77;22.15;;;17.00;99.90;;;;;;4976167;28;20059;-57
2022/09/10 08:05:58;;;;;;;28.27;21.52;;;17.00;99.90;;;;;;4981987;28;20569;-60
2022/09/10 08:08:28;;;;;;;27.33;21.08;;;17.10;99.90;;;;;;4976819;28;20038;-58
2022/09/10 08:10:54;;;;;;;26.33;21.85;;;17.20;99.90;;;;;;4960965;28;20084;-57
2022/09/10 08:13:21;;;;;;;28.58;22.58;;;17.30;99.90;;;;;;4956659;28;20132;-58
2022/09/10 08:15:47;;;;;;;26.42;20.05;;;17.40;99.90;;;;;;4966288;28;20554;-59
2022/09/10 08:18:13;;;;;;;24.70;19.58;;;17.40;99.90;;;;;;4942616;28;20035;-57
2022/09/10 08:20:39;;;;;;;22.98;18.85;;;17.50;99.90;;;;;;4956937;28;20124;-61
2022/09/10 08:23:06;;;;;;;25.83;20.30;;;17.50;99.90;;;;;;4964011;28;20078;-60
2022/09/10 08:25:32;;;;;;;24.27;19.42;;;17.60;99.90;;;;;;4978272;28;20123;-58
2022/09/10 08:27:59;;;;;;;24.17;18.42;;;17.60;99.90;;;;;;4978374;28;20283;-58
2022/09/10 08:30:24;;;;;;;21.60;18.02;;;17.70;99.90;;;;;;4958136;28;20070;-57
2022/09/10 08:32:50;;;;;;;25.85;19.73;;;17.70;99.90;;;;;;4965248;28;20077;-60
2022/09/10 08:35:16;;;;;;;20.10;17.13;;;17.70;99.90;;;;;;4981442;28;20405;-57
2022/09/10 08:37:42;;;;;;;21.90;17.95;;;17.80;99.90;;;;;;4969610;28;20489;-59
2022/09/10 08:40:12;;;;;;;18.73;16.73;;;17.80;99.90;;;;;;4975050;28;20056;-59
2022/09/10 08:42:43;;;;;;;21.98;18.17;;;17.90;99.90;;;;;;4971038;28;20096;-59
2022/09/10 08:45:17;;;;;;;24.60;18.27;;;17.90;99.90;;;;;;4982900;28;20517;-56
2022/09/10 08:47:48;;;;;;;18.52;15.48;;;17.90;99.90;;;;;;4970497;28;20065;-59
2022/09/10 08:50:35;;;;;;;19.02;16.33;;;18.00;99.90;;;;;;4964953;28;20050;-59
2022/09/10 08:53:09;;;;;;;19.92;17.42;;;18.00;99.90;;;;;;4969606;28;20054;-56
2022/09/10 08:55:40;;;;;;;17.65;15.68;;;18.10;99.90;;;;;;4969021;28;20050;-57
2022/09/10 08:58:22;;;;;;;21.95;17.40;;;18.20;99.90;;;;;;4983499;28;20053;-59
2022/09/10 09:00:55;;;;;;;19.77;15.30;;;18.20;99.90;;;;;;4966215;28;20093;-59
2022/09/10 09:03:36;;;;;;;20.33;16.00;;;18.20;99.90;;;;;;4968150;28;20274;-58
2022/09/10 09:06:04;;;;;;;21.77;17.35;;;18.20;99.90;;;;;;4964613;28;20046;-58
2022/09/10 09:08:37;;;;;;;22.90;17.30;;;18.20;99.90;;;;;;4959120;28;20073;-56
2022/09/10 09:11:24;;;;;;;18.67;16.30;;;18.20;99.90;;;;;;4981211;28;20061;-56
2022/09/10 09:14:26;;;;;;;20.48;16.55;;;18.20;99.90;;;;;;4967843;28;20065;-53
2022/09/10 09:17:24;;;;;;;25.35;17.88;;;18.20;99.90;;;;;;4945022;28;20409;-56
2022/09/10 09:20:01;;;;;;;20.15;17.60;;;18.20;99.90;;;;;;4953457;28;20137;-56
2022/09/10 09:22:39;;;;;;;23.77;17.15;;;18.20;99.90;;;;;;4966820;28;20049;-57
2022/09/10 09:25:26;;;;;;;26.35;17.58;;;18.20;99.90;;;;;;4968929;28;20038;-58
2022/09/10 09:27:55;;;;;;;22.75;16.90;;;18.20;99.90;;;;;;4968537;28;20034;-56
2022/09/10 09:30:34;;;;;;;19.58;16.10;;;18.20;99.90;;;;;;4967959;28;20129;-58
2022/09/10 09:33:15;;;;;;;21.58;16.55;;;18.20;99.90;;;;;;4983703;28;20513;-55
2022/09/10 09:35:56;;;;;;;22.40;17.73;;;18.20;99.90;;;;;;4976034;28;20446;-54
2022/09/10 09:38:23;;;;;;;21.65;17.20;;;18.20;99.90;;;;;;4965650;28;20434;-56
2022/09/10 09:40:56;;;;;;;24.15;17.67;;;18.30;99.90;;;;;;4988999;28;20134;-56
2022/09/10 09:43:25;;;;;;;23.50;15.53;;;18.30;99.90;;;;;;4967349;28;20050;-59
2022/09/10 09:45:52;;;;;;;23.40;17.52;;;18.30;99.90;;;;;;4967068;28;20383;-58
2022/09/10 09:48:20;;;;;;;16.83;14.57;;;18.20;99.90;;;;;;4969506;28;20038;-57
2022/09/10 09:50:48;;;;;;;19.73;15.68;;;18.20;99.90;;;;;;4968276;28;20129;-57
2022/09/10 09:53:27;;;;;;;18.42;15.48;;;18.20;99.90;;;;;;4959206;28;20043;-58
2022/09/10 09:55:55;;;;;;;23.38;16.65;;;18.20;99.90;;;;;;4976223;28;20074;-57
2022/09/10 09:58:20;;;;;;;17.88;15.45;;;18.20;99.90;;;;;;4963131;28;20054;-56
2022/09/10 10:01:12;;;;;;;19.15;16.08;;;18.20;99.90;;;;;;4962943;28;20042;-56
2022/09/10 10:04:01;;;;;;;19.17;14.38;;;18.30;99.90;;;;;;4965634;28;20042;-57
2022/09/10 10:06:33;;;;;;;20.90;15.20;;;18.30;99.90;;;;;;4963917;28;20481;-57
2022/09/10 10:09:06;;;;;;;16.67;13.65;;;18.40;99.90;;;;;;4961479;28;20038;-56
2022/09/10 10:11:44;;;;;;;16.98;13.65;;;18.40;99.90;;;;;;4942180;28;20141;-57
2022/09/10 10:14:22;;;;;;;18.30;14.68;;;18.50;99.90;;;;;;4962474;28;20697;-57
2022/09/10 10:16:53;;;;;;;17.10;15.13;;;18.50;99.90;;;;;;4977107;28;20042;-57
2022/09/10 10:19:27;;;;;;;22.58;14.18;;;18.60;99.90;;;;;;4984971;28;20112;-57
2022/09/10 10:21:53;;;;;;;22.13;15.88;;;18.60;99.90;;;;;;4963506;28;20485;-57
2022/09/10 10:24:31;;;;;;;17.75;14.98;;;18.60;99.90;;;;;;4955113;28;20054;-58
2022/09/10 10:26:58;;;;;;;20.40;17.08;;;18.60;99.90;;;;;;5010894;23;20059;-62
2022/09/10 10:29:24;;;;;;;24.05;17.02;;;18.70;99.90;;;;;;5040075;28;20671;-63
2022/09/10 10:31:50;;;;;;;21.27;15.35;;;18.70;99.90;;;;;;5061612;28;20040;-64
2022/09/10 10:34:19;;;;;;;22.35;16.13;;;18.80;99.90;;;;;;5054306;28;20083;-63
2022/09/10 10:37:11;;;;;;;20.67;15.73;;;18.80;99.90;;;;;;5057104;28;20041;-63
2022/09/10 10:39:52;;;;;;;18.60;14.80;;;18.90;99.90;;;;;;5035813;28;20336;-63
2022/09/10 10:42:23;;;;;;;20.60;16.02;;;19.00;99.90;;;;;;5048805;28;20071;-64
2022/09/10 10:45:29;;;;;;;21.00;15.45;;;19.20;99.90;;;;;;5038956;28;20273;-63
2022/09/10 10:48:15;;;;;;;23.38;15.32;;;19.30;99.90;;;;;;5054542;28;20507;-63
2022/09/10 10:51:17;;;;;;;21.25;17.27;;;19.50;99.90;;;;;;5047286;28;20127;-63
2022/09/10 10:54:05;;;;;;;25.33;18.55;;;19.60;99.90;;;;;;5002552;28;20516;-63
2022/09/10 10:56:39;;;;;;;23.58;18.67;;;19.60;99.90;;;;;;5034890;28;20608;-63
2022/09/10 10:59:29;;;;;;;20.80;15.35;;;19.70;99.90;;;;;;5032439;28;20097;-63
2022/09/10 11:02:12;;;;;;;18.58;16.02;;;19.90;99.90;;;;;;5038823;28;20040;-64
2022/09/10 11:04:51;;;;;;;18.43;15.43;;;20.00;99.90;;;;;;5038049;28;20052;-63
2022/09/10 11:07:38;;;;;;;21.48;15.50;;;20.00;99.90;;;;;;5023202;28;20075;-63
2022/09/10 11:10:10;;;;;;;20.35;14.95;;;20.00;99.90;;;;;;5045546;28;20041;-64
2022/09/10 11:12:46;;;;;;;19.58;15.50;;;20.10;99.90;;;;;;5047395;28;20114;-64
2022/09/10 11:15:37;;;;;;;21.70;16.77;;;20.50;99.90;;;;;;5041937;28;20674;-64
2022/09/10 11:18:14;;;;;;;26.23;16.23;;;20.60;99.90;;;;;;5047279;28;20073;-64
2022/09/10 11:20:55;;;;;;;18.27;14.77;;;20.60;99.90;;;;;;5058609;28;20114;-64
2022/09/10 11:23:35;;;;;;;18.60;15.35;;;20.70;99.90;;;;;;5055662;28;20399;-64
2022/09/10 11:26:11;;;;;;;21.83;16.42;;;20.60;99.90;;;;;;5043374;28;20622;-64
2022/09/10 11:29:02;;;;;;;20.73;15.82;;;20.60;99.90;;;;;;5045614;28;20106;-64
2022/09/10 11:31:59;;;;;;;16.80;13.73;;;20.40;99.90;;;;;;5040228;28;20384;-64
2022/09/10 11:34:40;;;;;;;19.50;15.45;;;20.20;99.90;;;;;;5032269;28;20052;-64
2022/09/10 11:37:11;;;;;;;18.17;14.93;;;20.30;99.90;;;;;;5061452;28;20049;-64
2022/09/10 11:39:43;;;;;;;16.40;13.48;;;20.40;99.90;;;;;;5045604;28;20109;-64
2022/09/10 11:42:39;;;;;;;14.85;12.25;;;20.50;99.90;;;;;;5043978;28;20041;-64
2022/09/10 11:45:30;;;;;;;15.73;12.52;;;20.90;99.90;;;;;;5060020;28;20044;-64
2022/09/10 11:48:23;;;;;;;16.55;13.32;;;21.20;99.90;;;;;;5039617;28;20041;-64
2022/09/10 11:51:14;;;;;;;19.48;13.75;;;21.40;99.90;;;;;;5048530;28;20071;-64
2022/09/10 11:53:40;;;;;;;16.90;12.02;;;21.70;99.90;;;;;;5039831;28;20049;-64
2022/09/10 11:56:09;;;;;;;12.15;10.70;;;21.70;99.90;;;;;;5041505;28;20044;-64
2022/09/10 11:58:45;;;;;;;11.75;9.50;;;21.70;99.90;;;;;;5046212;28;20060;-64
2022/09/10 12:01:40;;;;;;;13.27;10.68;;;21.70;99.90;;;;;;5047910;28;20425;-64
2022/09/10 12:04:16;;;;;;;14.45;12.40;;;21.60;99.90;;;;;;5040891;28;20047;-65
2022/09/10 12:07:00;;;;;;;13.02;11.73;;;21.30;99.90;;;;;;5025804;28;20037;-64
2022/09/10 12:09:36;;;;;;;14.23;11.32;;;21.20;99.90;;;;;;5048204;28;20063;-64
2022/09/10 12:12:16;;;;;;;12.23;9.65;;;21.00;99.90;;;;;;5044239;28;20067;-64
2022/09/10 12:14:42;;;;;;;13.75;10.93;;;20.90;99.90;;;;;;5048732;28;20105;-64
2022/09/10 12:17:23;;;;;;;16.20;12.05;;;21.00;99.90;;;;;;5044101;28;20470;-64
2022/09/10 12:19:55;;;;;;;13.38;9.63;;;21.20;99.90;;;;;;5048222;28;20079;-64
2022/09/10 12:22:35;;;;;;;11.87;10.10;;;21.30;99.90;;;;;;5048637;28;20654;-64
2022/09/10 12:25:04;;;;;;;11.98;9.95;;;21.30;99.90;;;;;;5044618;28;20333;-64
2022/09/10 12:27:55;;;;;;;12.80;9.50;;;21.30;99.90;;;;;;5044515;28;20097;-64
2022/09/10 12:30:24;;;;;;;12.18;9.07;;;21.30;99.90;;;;;;5048220;28;20059;-65
2022/09/10 12:32:59;;;;;;;14.02;9.75;;;21.50;99.90;;;;;;5038562;28;20041;-63
2022/09/10 12:35:34;;;;;;;11.55;8.73;;;21.70;99.90;;;;;;5043914;28;20040;-64
2022/09/10 12:38:42;;;;;;;11.65;8.50;;;21.90;99.90;;;;;;5038836;28;20083;-64
2022/09/10 12:41:09;;;;;;;10.10;7.70;;;22.20;99.90;;;;;;5030692;28;20495;-64
2022/09/10 12:43:56;;;;;;;11.88;8.40;;;22.40;99.90;;;;;;5046561;28;20054;-64
2022/09/10 12:46:24;;;;;;;13.70;10.13;;;22.60;99.90;;;;;;5041182;28;20477;-64
2022/09/10 12:49:05;;;;;;;12.23;9.65;;;22.90;99.90;;;;;;5039811;28;20044;-64
2022/09/10 12:51:50;;;;;;;10.18;8.95;;;22.90;99.90;;;;;;5045983;28;20739;-64
2022/09/10 12:54:43;;;;;;;9.30;7.57;;;22.90;99.80;;;;;;5040262;28;20040;-64